New Albany, MS (38652)

5:53 AM CDT on July 24, 2014 (GMT -0500)
Northhaven (KMSNEWAL2) Elev 364 ft | 34.51 °N, 89.00 °W | Change Station

Current weather conditions updated 6 minutes ago

Clear
Clear
66.2 °F
Feels Like 66.2 °F
N
0.0
Wind Variable Wind from South

Today is forecast to be Much Cooler than yesterday.

Today
High -- | Low -- °F
--% Chance of Precip.
Yesterday
High -- | Low -- °F
Precip. -- in
6:00 AM 8:03 PM
Waning Crescent, 6% visible
Pressure 29.96 in
Visibility 9.0 miles
Clouds Clear
Dew Point 66 °F
Humidity 98%
Rainfall 0.00 in
Snow Depth Not available.
UV 0 out of 12
Pollen 3.40 out of 12
Air Quality Not available.
Flu Activity Not available.
METAR KTUP 240953Z AUTO 01003KT 9SM CLR 21/20 A2997 RMK AO2 SLP144 T02110200

More Conditions Fewer Conditions

Pressure 29.96 in
Visibility 9.0 miles
Clouds Clear
Dew Point 66 °F
Humidity 98%
Rainfall 0.00 in
Snow Depth Not available.
UV 0 out of 12
Pollen 3.40 out of 12
Air Quality Not available.
Flu Activity Not available.
METAR KTUP 240953Z AUTO 01003KT 9SM CLR 21/20 A2997 RMK AO2 SLP144 T02110200

More Conditions Fewer Conditions

10-Day Weather Forecast

Almanac

Astronomy

Jul. 24, 2014 Rise Set
Actual Time 6:00 AM CDT 8:03 PM CDT
Civil Twilight 5:32 AM CDT 8:32 PM CDT
Nautical Twilight 4:58 AM CDT 9:06 PM CDT
Astronomical Twilight 4:21 AM CDT 9:42 PM CDT
Moon 4:07 AM CDT 6:20 PM CDT
Length of Visible Light 14h 59m
Length of Day
14h 03m
Tomorrow will be 1m 24s shorter.
Waning Crescent, 6% of the Moon is Illuminated
Today
Waning Crescent
Jul 26
New
Aug 3
First Quarter
Aug 10
Full
Aug 17
Last Quarter

Today's Extremes

State Highs State Lows

Community

WunderPhotos

Upload Photos

1,736,966 photos uploaded!

Nearby

Snow Depth

Station Depth Elevation
No new snow has been reported.

Earthquake Activity

City Distance Mag. Time & Date
No recent earthquake activity has been reported nearby.
Minimum magnitude displayed is 2.5.

Coastal Water Temperatures

Place Temperature
No Stations Reporting

Nearby Weather Stations

Station Location Temp. Dew Point Humidity Wind Precip. Elev Updated Type
Northhaven, New Albany, MS 66.2 °F 66 °F 98% South  at  0.0 mph - / hr 364 ft 5:47 AM CDT Normal
APRSWXNET Sherman MS , Belden, MS 69 °F 66 °F 90% WNW  at  0 mph 0.00 in / hr 360 ft 5:03 AM CDT MADIS
Birmingham Ridge / NW Lee County, MS, Saltillo, MS 68.7 °F 68 °F 99% WSW  at  0.0 mph 0.00 in / hr 308 ft 5:52 AM CDT Rapid Fire
Georgetown in The Villages, Tupelo, MS 69.8 °F 68 °F 94% North  at  0.0 mph - / hr 312 ft 5:49 AM CDT Normal
NE Mississippi near Tupelo, Baldwyn, MS 69.4 °F 69 °F 99% West  at  0.0 mph - / hr 341 ft 5:46 AM CDT Normal
Lee Acres, Tupelo, MS 70.2 °F 69 °F 97% NNW  at  1.0 mph 0.00 in / hr 340 ft 5:52 AM CDT Rapid Fire

Show More Stations Show Fewer Stations